Kezdőlap
METAR-TAF:

METAR-TAF

Repülőterek :

Malé, Maldív-szigetek

földrajzi szélesség: 04-12N, földrajzi hosszúság: 073-32E, magasság: 2 m

Jelenlegi meteorológiai megfigyelések

A jelentés 56 perccel ezelõtt készült, 12:00 UTC
Nyugat-északnyugati szél 4 kt
Hőmérséklet 30°C
Páratartalom 75%
Légköri nyomás 1008 hPa
Látótávolság 10 km, vagy több
Kevés felhő 1800 lábon, Tornyos gomolyfelhő.

METAR: VRMM 311200Z 30004KT 9999 FEW018TCU 30/25 Q1008 NOSIG

Idő: 17:56 (12:56 UTC)

Előrejelzés

A jelentés 1 órával és 56 perccel ezelõtt készült, 11:00 UTC
Az előrejelzés 31-én 12 óra UTC és 01-én 18 óra UTC között érvényes
Északnyugati szél 7 kt
Látótávolság 10 km, vagy több
Kevés felhő 1800 lábon, Tornyos gomolyfelhő.
31-én 12 óra UTC és 31-én 18 óra UTC között ideiglenes
Kevés felhő 1800 lábon, Cumulonimbus.

TAF: VRMM 311100Z 3112/0118 31007KT 9999 FEW018TCU TEMPO 3112/3118 FEW018CB

Meteorológiai megfigyelések és előrejelzések több, mint 4000 repülőtéren (METAR és TAF jelentéseket).

A térképen piros és sárga pontok jelzik az elérhető meteorológiai állomásokat.

Mozgassa az egeret a pont fölött, hogy megjelenjen az állomás neve.

Azután kattintson az időjárási megfigyelések és előrejelzések megtekintéséhez.

A térkép megváltoztatása: kattintson a fekete keresztel jelölt zöld gombra ráközelítéshez, a vonallal jelölt zöld gombra távolításhoz, vagy a zöld nyilakra a szomszédos térképek eléréséhez.


METAR-TAF: